Terminal Aerodrome Forecast
Issued by NWS

Home | Current Version | Previous Version | Text Only | Print | Product List | Glossary On
Versions: 1 2 3 4 5 6 7 8 9 10 11 12 13 14
000
FTUS44 KMOB 010521
TAFBFM
TAF
KBFM 010521Z 0106/0206 14021G28KT 3SM -RA BR VCTS BKN013CB BKN019
      OVC030
      TEMPO 0106/0110 VRB15G35KT 1SM +TSRA BKN015CB
     FM011000 30012KT P6SM -RA SCT015 BKN050
     FM011200 31010KT P6SM SCT250=

USA.gov is the U.S. government's official web portal to all federal, state and local government web resources and services.